Time;durP1;ratioP1;P1;durP2;ratioP2;P2;SDS_P1;SDS_P2;PMS_P1;PMS_P2;Temp;Humidity;BMP_temperature;BMP_pressure;BME280_temperature;BME280_humidity;BME280_pressure;Samples;Min_cycle;Max_cycle;Signal;HPM_P1;HPM_P2
2021/08/01 00:01:03;;;;;;;0.70;0.60;;;;;;;17.14;100.00;-11321.28;5052787;28;20951;-72
2021/08/01 00:03:31;;;;;;;0.80;0.70;;;;;;;17.02;100.00;-8882.69;5055051;28;21050;-71
2021/08/01 00:05:58;;;;;;;0.70;0.60;;;;;;;16.92;100.00;-5589.28;5037201;28;20424;-71
2021/08/01 00:08:25;;;;;;;0.80;0.70;;;;;;;16.87;100.00;-1598.78;5036062;28;20466;-71
2021/08/01 00:10:56;;;;;;;0.80;0.73;;;;;;;16.90;100.00;1650.25;5042181;28;20532;-72
2021/08/01 00:13:24;;;;;;;0.80;0.80;;;;;;;16.86;100.00;4682.63;5048352;28;20952;-71
2021/08/01 00:15:51;;;;;;;1.50;1.40;;;;;;;16.86;100.00;8157.00;5040675;28;20479;-72
2021/08/01 00:18:20;;;;;;;0.70;0.60;;;;;;;16.78;100.00;11423.69;5052903;28;20460;-72
2021/08/01 00:20:49;;;;;;;0.70;0.70;;;;;;;16.65;100.00;15777.97;5054041;28;20410;-72
2021/08/01 00:23:16;;;;;;;0.80;0.70;;;;;;;16.54;100.00;21368.34;5046170;28;20478;-72
2021/08/01 00:25:43;;;;;;;0.70;0.60;;;;;;;16.40;100.00;27000.91;5041304;28;20762;-72
2021/08/01 00:28:11;;;;;;;0.70;0.60;;;;;;;16.36;100.00;32564.06;5043032;28;20426;-71
2021/08/01 00:30:38;;;;;;;0.77;0.70;;;;;;;16.29;100.00;38329.25;5048147;28;20940;-72
2021/08/01 00:33:29;;;;;;;0.80;0.73;;;;;;;16.21;100.00;44535.63;5050183;28;20841;-72
2021/08/01 00:35:59;;;;;;;0.80;0.70;;;;;;;16.13;100.00;49156.59;5051807;28;20422;-72
2021/08/01 00:38:26;;;;;;;0.70;0.60;;;;;;;16.11;100.00;53120.84;5045085;28;20871;-71
2021/08/01 00:40:53;;;;;;;0.70;0.70;;;;;;;16.09;100.00;56427.75;5026327;28;20435;-71
2021/08/01 00:43:21;;;;;;;1.03;0.93;;;;;;;16.04;100.00;59071.91;5041716;28;20461;-71
2021/08/01 00:45:49;;;;;;;0.80;0.70;;;;;;;16.04;100.00;60397.25;5040853;28;20441;-72
2021/08/01 00:48:16;;;;;;;0.70;0.60;;;;;;;16.01;100.00;62051.41;5042110;28;20520;-71
2021/08/01 00:50:45;;;;;;;0.70;0.60;;;;;;;16.03;100.00;63048.41;5024901;28;20427;-71
2021/08/01 00:53:12;;;;;;;0.70;0.60;;;;;;;16.05;100.00;63714.00;5043777;28;20792;-71
2021/08/01 00:55:41;;;;;;;0.80;0.70;;;;;;;16.28;100.00;64403.00;5040617;28;20472;-72
2021/08/01 00:58:10;;;;;;;0.70;0.60;;;;;;;16.31;100.00;64406.97;5043601;28;20435;-71
2021/08/01 01:03:20;;;;;;;0.70;0.60;;;;;;;16.39;100.00;65079.47;5043019;28;20478;-71
2021/08/01 01:05:55;;;;;;;0.70;0.70;;;;;;;16.35;100.00;65406.94;5037458;28;20952;-72
2021/08/01 01:08:33;;;;;;;0.80;0.70;;;;;;;16.42;100.00;65414.97;5038499;28;20467;-72
2021/08/01 01:11:27;;;;;;;0.70;0.60;;;;;;;16.48;100.00;65421.28;5048092;28;20439;-71
2021/08/01 01:13:56;;;;;;;0.80;0.70;;;;;;;16.49;100.00;65422.44;5052086;28;20831;-71
2021/08/01 01:16:25;;;;;;;0.70;0.60;;;;;;;16.53;100.00;65094.88;5053211;28;20425;-71
2021/08/01 01:18:58;;;;;;;0.70;0.60;;;;;;;16.59;100.00;64769.59;5035548;28;20445;-71
2021/08/01 01:21:53;;;;;;;0.70;0.70;;;;;;;16.66;100.00;64445.44;5051779;28;20411;-71
2021/08/01 01:24:25;;;;;;;0.70;0.60;;;;;;;16.74;100.00;63790.22;5048151;28;20469;-71
2021/08/01 01:27:35;;;;;;;0.70;0.60;;;;;;;16.87;100.00;62143.75;5049109;28;20939;-71
2021/08/01 01:30:04;;;;;;;0.70;0.70;;;;;;;16.93;100.00;60822.38;5035396;28;20938;-71
2021/08/01 01:32:46;;;;;;;0.70;0.60;;;;;;;17.03;100.00;58841.84;5051838;28;20623;-72
2021/08/01 01:35:16;;;;;;;0.80;0.70;;;;;;;17.11;100.00;55533.06;5051525;28;20401;-72
2021/08/01 01:37:51;;;;;;;0.80;0.80;;;;;;;17.10;100.00;50232.84;5051292;28;20824;-72
2021/08/01 01:40:37;;;;;;;0.70;0.70;;;;;;;17.14;100.00;43117.19;5053116;28;20979;-71
2021/08/01 01:43:33;;;;;;;0.70;0.60;;;;;;;17.17;100.00;34166.25;5047658;28;20568;-72
2021/08/01 01:46:01;;;;;;;0.80;0.73;;;;;;;17.15;100.00;25847.19;5035245;28;20450;-72
2021/08/01 01:48:29;;;;;;;1.57;1.47;;;;;;;17.26;100.00;18312.06;5031895;28;20839;-72
2021/08/01 01:51:00;;;;;;;0.70;0.70;;;;;;;17.27;100.00;8719.38;5047678;28;20981;-71
2021/08/01 01:53:31;;;;;;;0.80;0.80;;;;;;;17.31;100.00;1593.00;5051262;28;20466;-72
2021/08/01 01:55:59;;;;;;;0.70;0.60;;;;;;;17.30;100.00;-5440.03;5050925;28;20470;-72
2021/08/01 01:58:28;;;;;;;0.70;0.70;;;;;;;17.33;100.00;-10249.25;5034197;28;20478;-72
2021/08/01 02:00:55;;;;;;;0.70;0.60;;;;;;;17.35;100.00;-13778.19;5052348;28;20785;-71
2021/08/01 02:03:24;;;;;;;0.77;0.70;;;;;;;17.39;100.00;-16566.19;5052258;28;20426;-72
2021/08/01 02:06:09;;;;;;;0.80;0.70;;;;;;;17.31;100.00;-18516.00;5052876;28;20500;-71
2021/08/01 02:09:06;;;;;;;0.73;0.70;;;;;;;17.27;100.00;-19355.91;5051274;28;20547;-71
2021/08/01 02:12:06;;;;;;;0.70;0.70;;;;;;;17.25;100.00;-19160.50;5031018;28;20967;-72
2021/08/01 02:14:52;;;;;;;0.80;0.70;;;;;;;17.22;100.00;-19040.63;5050951;28;20471;-72
2021/08/01 02:17:25;;;;;;;0.80;0.80;;;;;;;17.16;100.00;-18284.56;5052123;28;20413;-72
2021/08/01 02:19:56;;;;;;;0.70;0.70;;;;;;;17.13;100.00;-16920.94;5050638;28;20516;-71
2021/08/01 02:22:24;;;;;;;0.70;0.60;;;;;;;17.08;100.00;-15612.22;5050962;28;20442;-72
2021/08/01 02:24:54;;;;;;;0.70;0.60;;;;;;;17.05;100.00;-14757.47;5047945;28;20500;-71
2021/08/01 02:27:22;;;;;;;0.70;0.63;;;;;;;17.03;100.00;-13212.75;5051109;28;21030;-72
2021/08/01 02:29:53;;;;;;;0.80;0.70;;;;;;;17.03;100.00;-12347.72;5050562;28;20449;-71
2021/08/01 02:32:21;;;;;;;0.80;0.77;;;;;;;17.05;100.00;-12365.81;5043349;28;20447;-72
2021/08/01 02:34:49;;;;;;;0.80;0.70;;;;;;;17.02;100.00;-11885.81;5031581;28;20461;-71
2021/08/01 02:37:18;;;;;;;0.70;0.60;;;;;;;16.99;100.00;-9870.22;5031005;28;20441;-71
2021/08/01 02:39:46;;;;;;;0.80;0.70;;;;;;;16.88;100.00;-6026.38;5031301;28;20460;-70
2021/08/01 02:42:15;;;;;;;0.80;0.70;;;;;;;16.73;100.00;1050.22;5031040;28;20440;-70
2021/08/01 02:44:44;;;;;;;0.73;0.70;;;;;;;16.57;100.00;12713.25;5031511;28;20466;-71
2021/08/01 02:47:18;;;;;;;0.70;0.70;;;;;;;16.56;100.00;29637.13;5031422;28;20427;-71
2021/08/01 02:49:46;;;;;;;0.70;0.63;;;;;;;16.41;100.00;40809.34;5030753;28;20445;-71
2021/08/01 02:52:19;;;;;;;0.80;0.70;;;;;;;16.32;100.00;51486.38;5029943;28;20448;-71
2021/08/01 02:54:49;;;;;;;0.80;0.70;;;;;;;16.29;100.00;58103.38;5034109;28;20503;-71
2021/08/01 02:57:22;;;;;;;0.70;0.70;;;;;;;16.23;100.00;61743.22;5036522;28;20500;-71
2021/08/01 02:59:50;;;;;;;0.80;0.70;;;;;;;16.16;100.00;62067.78;5035805;28;20411;-71
2021/08/01 03:02:18;;;;;;;0.73;0.70;;;;;;;16.20;100.00;61077.34;5035876;28;20425;-71
2021/08/01 03:04:53;;;;;;;0.80;0.70;;;;;;;16.18;100.00;60412.16;5045979;28;20512;-71
2021/08/01 03:07:20;;;;;;;0.80;0.70;;;;;;;16.15;100.00;59414.72;5034273;28;20530;-72
2021/08/01 03:09:51;;;;;;;0.80;0.80;;;;;;;16.15;100.00;58420.78;5017196;28;20501;-71
2021/08/01 03:12:20;;;;;;;0.70;0.60;;;;;;;16.09;100.00;55766.22;5018270;28;20532;-71
2021/08/01 03:14:48;;;;;;;0.70;0.60;;;;;;;16.08;100.00;53118.00;5035699;28;20972;-71
2021/08/01 03:17:16;;;;;;;0.70;0.70;;;;;;;16.06;100.00;50471.53;5034672;28;20468;-70
2021/08/01 03:19:44;;;;;;;0.70;0.70;;;;;;;15.98;100.00;46831.88;5034057;28;20444;-71
2021/08/01 03:22:13;;;;;;;0.80;0.70;;;;;;;15.94;100.00;41882.56;5033734;28;20453;-71
2021/08/01 03:24:41;;;;;;;0.70;0.63;;;;;;;15.92;100.00;36941.69;5035591;28;20475;-71
2021/08/01 03:27:12;;;;;;;0.80;0.80;;;;;;;15.88;100.00;31598.84;5034892;28;20410;-71
2021/08/01 03:29:41;;;;;;;0.80;0.70;;;;;;;15.85;100.00;26707.00;5033363;28;20517;-71
2021/08/01 03:32:14;;;;;;;0.80;0.80;;;;;;;15.84;100.00;21593.13;5036929;28;20432;-71
2021/08/01 03:34:42;;;;;;;0.80;0.70;;;;;;;15.83;100.00;17105.34;5034031;28;20454;-71
2021/08/01 03:37:10;;;;;;;0.70;0.70;;;;;;;15.86;100.00;12564.00;5034055;28;20451;-71
2021/08/01 03:39:55;;;;;;;0.70;0.70;;;;;;;15.90;100.00;7992.69;5033998;28;20416;-71
2021/08/01 03:42:22;;;;;;;0.80;0.70;;;;;;;15.91;100.00;4972.03;5044124;28;20437;-71
2021/08/01 03:44:50;;;;;;;0.80;0.70;;;;;;;15.95;100.00;2463.00;5053576;28;20459;-71
2021/08/01 03:47:18;;;;;;;0.70;0.70;;;;;;;15.93;100.00;-156.63;5044535;28;20783;-71
2021/08/01 03:49:45;;;;;;;0.80;0.70;;;;;;;15.89;100.00;-1559.75;5053349;28;20443;-72
2021/08/01 03:52:12;;;;;;;0.80;0.80;;;;;;;15.77;100.00;-1804.13;5055185;28;20432;-71
2021/08/01 03:54:39;;;;;;;0.70;0.70;;;;;;;15.74;100.00;-4015.91;5055031;28;20530;-71
2021/08/01 03:57:06;;;;;;;0.80;0.80;;;;;;;15.70;100.00;-5822.63;5053640;28;20487;-70
2021/08/01 03:59:34;;;;;;;0.73;0.70;;;;;;;15.63;100.00;-7615.22;5053020;28;20880;-70
2021/08/01 04:02:02;;;;;;;0.70;0.70;;;;;;;15.58;100.00;-9728.38;5053395;28;20456;-71
2021/08/01 04:04:29;;;;;;;0.70;0.70;;;;;;;15.56;100.00;-11728.78;5053440;28;20819;-70
2021/08/01 04:06:56;;;;;;;0.80;0.73;;;;;;;15.53;100.00;-13365.88;5048819;28;20512;-70
2021/08/01 04:09:23;;;;;;;0.80;0.70;;;;;;;15.49;100.00;-14789.38;5052064;28;20465;-71
2021/08/01 04:11:50;;;;;;;0.73;0.70;;;;;;;15.46;100.00;-16121.47;5054977;28;20511;-72
2021/08/01 04:14:17;;;;;;;0.80;0.73;;;;;;;15.52;100.00;-17318.00;5033574;28;20440;-71
2021/08/01 04:16:44;;;;;;;0.70;0.60;;;;;;;15.49;100.00;-18434.06;5036041;28;20929;-70
2021/08/01 04:19:13;;;;;;;0.70;0.70;;;;;;;15.48;100.00;-19542.59;5034527;28;20428;-71
2021/08/01 04:21:41;;;;;;;0.80;0.70;;;;;;;15.55;100.00;-20322.22;5034127;28;20430;-71
2021/08/01 04:24:09;;;;;;;0.80;0.80;;;;;;;15.54;100.00;-20819.34;5034366;28;21041;-70
2021/08/01 04:26:36;;;;;;;0.80;0.80;;;;;;;15.55;100.00;-21102.34;5053114;28;20442;-71
2021/08/01 04:29:03;;;;;;;0.70;0.67;;;;;;;15.60;100.00;-21105.47;5054154;28;20931;-71
2021/08/01 04:31:30;;;;;;;0.80;0.70;;;;;;;15.58;100.00;-21105.06;5050145;28;20498;-70
2021/08/01 04:33:57;;;;;;;0.80;0.70;;;;;;;15.53;100.00;-21103.53;5032411;28;20813;-70
2021/08/01 04:36:26;;;;;;;0.80;0.80;;;;;;;15.58;100.00;-21104.91;5034176;28;20405;-70
2021/08/01 04:38:53;;;;;;;0.80;0.80;;;;;;;15.56;100.00;-21104.38;5034053;28;20451;-70
2021/08/01 04:41:20;;;;;;;0.70;0.60;;;;;;;15.59;100.00;-21105.31;5031653;28;20426;-71
2021/08/01 04:43:46;;;;;;;0.90;0.90;;;;;;;15.61;100.00;-21105.72;5032891;28;20411;-72
2021/08/01 04:46:14;;;;;;;0.70;0.67;;;;;;;15.63;100.00;-21106.28;5034173;28;20821;-71
2021/08/01 04:48:41;;;;;;;0.80;0.70;;;;;;;15.64;100.00;-21106.69;5033864;28;20428;-70
2021/08/01 04:51:08;;;;;;;0.70;0.63;;;;;;;15.74;100.00;-21109.19;5033208;28;20476;-71
2021/08/01 04:53:36;;;;;;;0.70;0.60;;;;;;;15.71;100.00;-21108.50;5034159;28;20459;-71
2021/08/01 04:56:07;;;;;;;0.70;0.70;;;;;;;15.73;100.00;-21109.03;5032683;28;20970;-70
2021/08/01 04:58:34;;;;;;;0.80;0.70;;;;;;;15.66;100.00;-21107.13;5036016;28;20808;-71
2021/08/01 05:01:02;;;;;;;0.70;0.70;;;;;;;15.68;100.00;-21107.66;5045027;28;20459;-72
2021/08/01 05:03:29;;;;;;;0.80;0.80;;;;;;;15.75;100.00;-21109.59;5053261;28;20435;-71
2021/08/01 05:05:56;;;;;;;0.70;0.70;;;;;;;15.79;100.00;-21110.69;5052056;28;20466;-71
2021/08/01 05:08:23;;;;;;;0.70;0.70;;;;;;;15.83;100.00;-21111.78;5052798;28;20728;-71
2021/08/01 05:10:51;;;;;;;0.70;0.60;;;;;;;15.98;100.00;-21115.63;5053378;28;20881;-71
2021/08/01 05:13:18;;;;;;;0.70;0.60;;;;;;;15.93;100.00;-21114.53;5053378;28;20431;-70
2021/08/01 05:15:45;;;;;;;0.80;0.70;;;;;;;15.96;100.00;-21115.09;5053591;28;20431;-70
2021/08/01 05:18:11;;;;;;;0.70;0.70;;;;;;;15.99;100.00;-21115.91;5052072;28;20522;-70
2021/08/01 05:20:41;;;;;;;0.80;0.70;;;;;;;15.93;100.00;-21114.53;5052997;28;20866;-70
2021/08/01 05:23:08;;;;;;;0.77;0.70;;;;;;;15.87;100.00;-21112.88;5053439;28;20486;-71
2021/08/01 05:25:35;;;;;;;0.77;0.70;;;;;;;15.85;100.00;-21112.34;5051279;28;20467;-70
2021/08/01 05:28:04;;;;;;;0.80;0.70;;;;;;;15.85;100.00;-21112.34;5051994;28;20492;-71
2021/08/01 05:30:31;;;;;;;0.70;0.60;;;;;;;15.93;100.00;-21114.53;5052544;28;20805;-71
2021/08/01 05:32:57;;;;;;;0.70;0.70;;;;;;;15.84;100.00;-21009.16;5035397;28;20448;-71
2021/08/01 05:35:24;;;;;;;0.70;0.70;;;;;;;15.85;100.00;-20852.69;5030420;28;20506;-71
2021/08/01 05:37:51;;;;;;;0.70;0.70;;;;;;;15.78;100.00;-20802.97;5031845;28;20867;-70
2021/08/01 05:40:18;;;;;;;0.80;0.73;;;;;;;15.76;100.00;-20782.22;5038529;28;20444;-70
2021/08/01 05:42:46;;;;;;;0.70;0.60;;;;;;;15.75;100.00;-20746.44;5051998;28;20443;-70
2021/08/01 05:45:14;;;;;;;0.70;0.60;;;;;;;15.66;100.00;-20696.31;5049402;28;20467;-70
2021/08/01 05:47:41;;;;;;;0.70;0.63;;;;;;;15.67;100.00;-20638.38;5052688;28;20823;-70
2021/08/01 05:50:09;;;;;;;0.80;0.70;;;;;;;15.57;100.00;-20527.28;5052838;28;20431;-71
2021/08/01 05:52:36;;;;;;;0.80;0.70;;;;;;;15.50;100.00;-20495.13;5052851;28;20908;-71
2021/08/01 05:55:04;;;;;;;0.80;0.80;;;;;;;15.55;100.00;-20385.34;5048731;28;20533;-70
2021/08/01 05:57:32;;;;;;;0.70;0.70;;;;;;;15.51;100.00;-20376.72;5052698;28;20924;-70
2021/08/01 05:59:58;;;;;;;0.70;0.70;;;;;;;15.49;100.00;-20406.50;5052897;28;20855;-70
2021/08/01 06:02:27;;;;;;;0.70;0.70;;;;;;;15.49;100.00;-20461.91;5044079;28;20484;-70
2021/08/01 06:04:59;;;;;;;0.80;0.70;;;;;;;15.56;100.00;-20420.84;5050979;28;20462;-70
2021/08/01 06:07:25;;;;;;;0.70;0.70;;;;;;;15.65;100.00;-20307.03;5049893;28;20525;-70
2021/08/01 06:09:52;;;;;;;0.70;0.70;;;;;;;15.74;100.00;-20319.50;5032802;28;20495;-70
2021/08/01 06:12:19;;;;;;;0.70;0.70;;;;;;;15.96;100.00;-20173.41;5031675;28;20835;-70
2021/08/01 06:14:48;;;;;;;0.70;0.67;;;;;;;16.08;100.00;-19893.47;5031205;28;20490;-69
2021/08/01 06:17:15;;;;;;;0.70;0.60;;;;;;;16.16;100.00;-19597.38;5032924;28;20518;-69
2021/08/01 06:19:43;;;;;;;0.80;0.70;;;;;;;16.24;100.00;-19280.53;5038690;28;20906;-70
2021/08/01 06:22:10;;;;;;;1.73;1.63;;;;;;;16.31;100.00;-18930.84;5051319;28;20439;-71
2021/08/01 06:24:37;;;;;;;0.70;0.67;;;;;;;16.35;100.00;-18562.53;5051291;28;20499;-70
2021/08/01 06:27:05;;;;;;;0.70;0.60;;;;;;;16.52;100.00;-18070.28;5043941;28;20433;-70
2021/08/01 06:29:32;;;;;;;0.70;0.70;;;;;;;16.50;100.00;-17723.16;5033494;28;20850;-70
2021/08/01 06:31:58;;;;;;;0.70;0.60;;;;;;;16.58;100.00;-17418.63;5034389;28;20486;-69
2021/08/01 06:34:25;;;;;;;0.70;0.63;;;;;;;16.69;100.00;-16853.72;5036478;28;20508;-70
2021/08/01 06:36:54;;;;;;;0.70;0.60;;;;;;;16.83;100.00;-16372.91;5036139;28;20429;-70
2021/08/01 06:39:20;;;;;;;0.70;0.70;;;;;;;16.84;100.00;-15886.69;5036440;28;20542;-69
2021/08/01 06:41:48;;;;;;;0.70;0.60;;;;;;;16.80;100.00;-15559.09;5035528;28;20432;-69
2021/08/01 06:44:15;;;;;;;0.70;0.70;;;;;;;16.87;100.00;-14832.97;5036317;28;20409;-70
2021/08/01 06:46:41;;;;;;;0.70;0.70;;;;;;;16.98;100.00;-14150.28;5036270;28;20464;-70
2021/08/01 06:49:09;;;;;;;0.70;0.60;;;;;;;17.04;100.00;-13781.00;5033472;28;20472;-70
2021/08/01 06:51:38;;;;;;;0.80;0.70;;;;;;;17.01;100.00;-13230.22;5035488;28;20932;-70
2021/08/01 06:54:07;;;;;;;0.70;0.70;;;;;;;17.09;100.00;-12787.44;5040942;28;20491;-70
2021/08/01 06:56:36;;;;;;;0.70;0.60;;;;;;;17.19;100.00;-12428.41;5049476;28;20512;-71
2021/08/01 06:59:04;;;;;;;0.70;0.63;;;;;;;17.34;100.00;-11831.31;5056000;28;20441;-71
2021/08/01 07:01:31;;;;;;;0.70;0.60;;;;;;;17.49;100.00;-11508.13;5054915;28;20455;-71
2021/08/01 07:03:58;;;;;;;0.80;0.80;;;;;;;17.62;100.00;-10960.88;5055977;28;20484;-71
2021/08/01 07:06:25;;;;;;;0.70;0.70;;;;;;;17.62;100.00;-11240.31;5053290;28;20474;-70
2021/08/01 07:08:52;;;;;;;0.87;0.87;;;;;;;17.77;100.00;-11358.84;5053771;28;20505;-70
2021/08/01 07:11:20;;;;;;;0.73;0.70;;;;;;;17.86;100.00;-11779.22;5055678;28;20428;-70
2021/08/01 07:14:08;;;;;;;0.70;0.70;;;;;;;18.22;100.00;-13392.31;5055962;28;20879;-70
2021/08/01 07:16:41;;;;;;;0.80;0.70;;;;;;;18.30;100.00;-16680.53;5055695;28;20420;-70
2021/08/01 07:19:08;;;;;;;0.70;0.70;;;;;;;18.33;100.00;-16536.31;5054234;28;20410;-71
2021/08/01 07:21:36;;;;;;;0.80;0.70;;;;;;;18.53;100.00;-19896.19;5054390;28;20454;-70
2021/08/01 07:24:04;;;;;;;0.80;0.70;;;;;;;18.73;100.00;-21189.69;5055556;28;20475;-71
2021/08/01 07:26:32;;;;;;;0.70;0.60;;;;;;;18.55;100.00;-21184.75;5066825;28;20805;-70
2021/08/01 07:28:59;;;;;;;0.73;0.70;;;;;;;18.57;100.00;-21185.31;5055324;28;20950;-70
2021/08/01 07:31:29;;;;;;;0.80;0.70;;;;;;;18.76;100.00;-21190.38;5054046;28;20440;-71
2021/08/01 07:33:57;;;;;;;0.80;0.70;;;;;;;18.50;100.00;-21183.53;5035386;28;20517;-71
2021/08/01 07:36:24;;;;;;;0.70;0.60;;;;;;;19.07;100.00;-21198.72;5038370;28;20448;-71
2021/08/01 07:38:51;;;;;;;0.80;0.80;;;;;;;19.39;100.00;-21207.22;5051531;28;20476;-71
2021/08/01 07:41:18;;;;;;;0.70;0.63;;;;;;;19.88;100.00;-21220.34;5050587;28;20804;-70
2021/08/01 07:43:46;;;;;;;0.80;0.80;;;;;;;19.65;100.00;-21214.31;5033941;28;20455;-71
2021/08/01 07:46:13;;;;;;;0.80;0.80;;;;;;;19.62;100.00;-21213.50;5035276;28;20472;-70
2021/08/01 07:48:41;;;;;;;0.70;0.60;;;;;;;19.61;100.00;-21213.22;5050343;28;20437;-70
2021/08/01 07:51:07;;;;;;;0.80;0.70;;;;;;;19.49;100.00;-21209.94;5034943;28;20486;-71
2021/08/01 07:53:34;;;;;;;0.80;0.70;;;;;;;19.69;100.00;-21215.41;5035031;28;20445;-71
2021/08/01 07:56:02;;;;;;;0.80;0.77;;;;;;;20.02;100.00;-21224.16;5036460;28;20959;-70
2021/08/01 07:58:29;;;;;;;0.83;0.83;;;;;;;20.58;100.00;-21239.19;5054090;28;20811;-71
2021/08/01 08:00:58;;;;;;;0.70;0.70;;;;;;;19.99;100.00;-21223.34;5053791;28;20951;-71
2021/08/01 08:03:25;;;;;;;0.80;0.70;;;;;;;20.01;100.00;-21223.88;5040829;28;20433;-70
2021/08/01 08:05:52;;;;;;;0.70;0.60;;;;;;;20.02;100.00;-21224.16;5034496;28;20461;-71
2021/08/01 08:08:19;;;;;;;0.80;0.70;;;;;;;20.06;100.00;-21225.25;5034652;28;20489;-71
2021/08/01 08:10:47;;;;;;;0.70;0.70;;;;;;;20.19;100.00;-21228.81;5034719;28;20441;-71
2021/08/01 08:13:14;;;;;;;0.70;0.70;;;;;;;20.72;100.00;-21242.88;5032947;28;20411;-71
2021/08/01 08:15:41;;;;;;;0.70;0.63;;;;;;;20.93;100.00;-21248.47;5034637;28;20838;-71
2021/08/01 08:18:09;;;;;;;0.80;0.60;;;;;;;21.15;100.00;-21254.47;5032252;28;20433;-71
2021/08/01 08:20:36;;;;;;;0.70;0.60;;;;;;;21.51;100.00;-21264.03;5034338;28;20395;-71
2021/08/01 08:23:03;;;;;;;0.70;0.60;;;;;;;21.30;100.00;-21258.44;5037998;28;20772;-72
2021/08/01 08:25:30;;;;;;;0.80;0.70;;;;;;;21.18;100.00;-21255.16;5048467;28;20492;-72
2021/08/01 08:27:57;;;;;;;0.80;0.70;;;;;;;21.34;100.00;-21259.38;5051715;28;20546;-70
2021/08/01 08:30:24;;;;;;;0.80;0.70;;;;;;;21.36;100.00;-21259.94;5055144;28;20482;-71
2021/08/01 08:32:55;;;;;;;0.80;0.70;;;;;;;21.23;100.00;-21256.66;5053896;28;20997;-71
2021/08/01 08:35:23;;;;;;;0.80;0.60;;;;;;;21.44;100.00;-21262.13;5045089;28;20424;-71
2021/08/01 08:37:52;;;;;;;0.80;0.63;;;;;;;22.27;100.00;-21284.19;5041569;28;21036;-71
2021/08/01 08:40:20;;;;;;;0.70;0.60;;;;;;;22.35;100.00;-21286.38;5042216;28;20502;-71
2021/08/01 08:42:48;;;;;;;0.70;0.60;;;;;;;22.78;100.00;-21297.81;5034989;28;20475;-71
2021/08/01 08:45:15;;;;;;;0.70;0.50;;;;;;;23.07;100.00;-21305.56;5036519;28;20432;-71
2021/08/01 08:47:43;;;;;;;0.70;0.60;;;;;;;22.55;100.00;-21291.69;5053111;28;20429;-71
2021/08/01 08:50:12;;;;;;;1.00;0.90;;;;;;;23.35;100.00;-21313.19;5049342;28;20478;-71
2021/08/01 08:52:43;;;;;;;0.70;0.60;;;;;;;24.33;100.00;-21339.25;5015605;28;20487;-72
2021/08/01 08:55:11;;;;;;;0.70;0.50;;;;;;;24.75;100.00;-21350.41;5031711;28;20457;-71
2021/08/01 08:57:43;;;;;;;0.70;0.50;;;;;;;24.47;100.00;-21342.81;5033595;28;20933;-71
2021/08/01 09:00:15;;;;;;;0.80;0.70;;;;;;;24.01;100.00;-21330.72;5032521;28;20491;-72
2021/08/01 09:02:43;;;;;;;0.70;0.50;;;;;;;23.84;100.00;-21326.22;5044032;28;20432;-72
2021/08/01 09:05:11;;;;;;;0.70;0.50;;;;;;;23.74;100.00;-21323.38;5053198;28;20519;-72
2021/08/01 09:07:39;;;;;;;0.70;0.60;;;;;;;23.79;100.00;-21324.88;5053223;28;20521;-72
2021/08/01 09:10:08;;;;;;;0.70;0.50;;;;;;;24.40;100.00;-21341.03;5043549;28;20801;-72
2021/08/01 09:12:46;;;;;;;0.70;0.60;;;;;;;24.96;100.00;-21355.97;5039964;28;20444;-71
2021/08/01 09:15:15;;;;;;;0.70;0.60;;;;;;;24.70;100.00;-21348.91;5032095;28;21051;-71
2021/08/01 09:17:44;;;;;;;0.70;0.50;;;;;;;25.81;100.00;-21378.47;5033055;28;20536;-71
2021/08/01 09:20:17;;;;;;;0.70;0.57;;;;;;;25.92;100.00;-21381.47;5033691;28;20463;-71
2021/08/01 09:23:05;;;;;;;0.70;0.50;;;;;;;24.68;100.00;-21348.50;5032680;28;20452;-71
2021/08/01 09:25:35;;;;;;;0.70;0.50;;;;;;;25.17;100.00;-21361.53;5048548;28;20933;-71
2021/08/01 09:28:21;;;;;;;0.70;0.50;;;;;;;26.33;100.00;-21392.16;5033462;28;20425;-71
2021/08/01 09:30:50;;;;;;;0.70;0.50;;;;;;;26.24;100.00;-21389.84;5036720;28;20444;-72
2021/08/01 09:33:31;;;;;;;0.70;0.50;;;;;;;25.34;100.00;-21365.88;5032607;28;20857;-72
2021/08/01 09:36:09;;;;;;;0.70;0.50;;;;;;;24.95;100.00;-21355.69;5052029;28;20914;-71
2021/08/01 09:38:49;;;;;;;0.70;0.60;;;;;;;23.24;100.00;-21310.19;5052602;28;20448;-71
2021/08/01 09:41:19;;;;;;;0.70;0.50;;;;;;;22.98;100.00;-21303.13;5052937;28;20432;-72
2021/08/01 09:43:48;;;;;;;0.70;0.60;;;;;;;24.86;100.00;-21353.13;5036832;28;20433;-71
2021/08/01 09:46:15;;;;;;;0.70;0.60;;;;;;;26.01;100.00;-21383.88;5033117;28;20957;-70
2021/08/01 09:48:43;;;;;;;0.70;0.60;;;;;;;25.03;100.00;-21357.84;5033183;28;20788;-70
2021/08/01 09:51:10;;;;;;;0.70;0.60;;;;;;;24.17;100.00;-21334.78;5033116;28;20461;-71
2021/08/01 09:53:41;;;;;;;0.70;0.50;;;;;;;23.41;100.00;-21314.66;5042593;28;20490;-73
2021/08/01 09:56:18;;;;;;;0.70;0.57;;;;;;;23.01;100.00;-21303.94;5051362;28;20415;-71
2021/08/01 09:58:46;;;;;;;0.70;0.60;;;;;;;24.45;100.00;-21342.41;5045392;28;20416;-71
2021/08/01 10:01:13;;;;;;;0.70;0.50;;;;;;;23.56;100.00;-21318.75;5044261;28;20481;-71
2021/08/01 10:03:42;;;;;;;0.70;0.57;;;;;;;24.38;100.00;-21340.50;5051901;28;20781;-70
2021/08/01 10:06:12;;;;;;;0.70;0.60;;;;;;;25.26;100.00;-21363.84;5057048;28;20995;-71
2021/08/01 10:08:41;;;;;;;0.70;0.60;;;;;;;25.15;100.00;-21361.00;5055552;28;20497;-71
2021/08/01 10:11:16;;;;;;;0.70;0.50;;;;;;;27.18;100.00;-21414.75;5043375;28;20535;-71
2021/08/01 10:13:46;;;;;;;0.70;0.50;;;;;;;27.55;100.00;-21424.47;5036165;28;20753;-71
2021/08/01 10:16:14;;;;;;;0.80;0.60;;;;;;;28.22;100.00;-21442.31;5034513;28;20524;-72
2021/08/01 10:18:43;;;;;;;0.70;0.50;;;;;;;28.71;100.00;-21455.25;5038577;28;20422;-71
2021/08/01 10:21:12;;;;;;;0.70;0.50;;;;;;;28.96;100.00;-21461.72;5053165;28;20456;-72
2021/08/01 10:23:42;;;;;;;0.70;0.50;;;;;;;28.71;100.00;-21455.25;5051763;28;20465;-71
2021/08/01 10:26:10;;;;;;;0.70;0.50;;;;;;;27.39;100.00;-21420.41;5036717;28;20783;-72
2021/08/01 10:28:48;;;;;;;0.70;0.50;;;;;;;28.07;100.00;-21438.25;5041463;28;20939;-72
2021/08/01 10:31:19;;;;;;;0.70;0.50;;;;;;;28.47;100.00;-21448.78;5029351;28;20436;-71
2021/08/01 10:33:55;;;;;;;0.70;0.50;;;;;;;27.98;100.00;-21435.94;5056036;28;20511;-71
2021/08/01 10:36:26;;;;;;;0.70;0.50;;;;;;;28.78;100.00;-21457.00;5038698;28;20436;-71
2021/08/01 10:39:00;;;;;;;0.70;0.50;;;;;;;27.80;100.00;-21431.22;5035410;28;20449;-72
2021/08/01 10:41:33;;;;;;;0.70;0.50;;;;;;;28.25;100.00;-21442.97;5036583;28;20408;-71
2021/08/01 10:44:06;;;;;;;0.70;0.50;;;;;;;27.83;100.00;-21432.03;5039238;28;20845;-71
2021/08/01 10:46:34;;;;;;;0.70;0.50;;;;;;;27.49;100.00;-21423.00;5049776;28;20467;-71
2021/08/01 10:49:07;;;;;;;0.70;0.50;;;;;;;26.55;100.00;-21397.97;5035129;28;20432;-72
2021/08/01 10:51:35;;;;;;;0.70;0.50;;;;;;;26.05;100.00;-21384.69;5035501;28;20463;-72
2021/08/01 10:54:30;;;;;;;0.70;0.50;;;;;;;28.05;100.00;-21437.72;5036127;28;20455;-72
2021/08/01 10:57:15;;;;;;;0.73;0.60;;;;;;;29.01;100.00;-21463.06;5036644;28;20425;-71
2021/08/01 11:00:16;;;;;;;0.70;0.50;;;;;;;28.28;100.00;-21443.91;5034567;28;20543;-71
2021/08/01 11:02:43;;;;;;;0.70;0.50;;;;;;;29.41;100.00;-21473.59;5034054;28;20439;-72
2021/08/01 11:05:36;;;;;;;0.70;0.50;;;;;;;29.49;100.00;-21475.75;5035756;28;20436;-72
2021/08/01 11:08:05;;;;;;;0.70;0.50;;;;;;;30.60;100.00;-21505.09;5035159;28;20551;-71
2021/08/01 11:10:32;;;;;;;0.70;0.50;;;;;;;29.31;100.00;-21471.16;5035638;28;20447;-71
2021/08/01 11:12:59;;;;;;;0.70;0.50;;;;;;;29.58;100.00;-21478.16;5035990;28;20429;-71
2021/08/01 11:15:45;;;;;;;0.70;0.50;;;;;;;29.40;100.00;-21473.44;5034107;28;20425;-71
2021/08/01 11:18:13;;;;;;;0.70;0.50;;;;;;;29.24;100.00;-21469.28;5033337;28;20440;-72
2021/08/01 11:20:55;;;;;;;0.70;0.50;;;;;;;27.81;100.00;-21431.50;5033888;28;20432;-71
2021/08/01 11:24:07;;;;;;;0.70;0.50;;;;;;;25.30;100.00;-21364.91;5033209;28;20467;-72
2021/08/01 11:26:36;;;;;;;0.70;0.50;;;;;;;25.35;100.00;-21366.28;5041523;28;20488;-72
2021/08/01 11:29:06;;;;;;;0.70;0.60;;;;;;;25.80;100.00;-21378.06;5055290;28;20479;-71
2021/08/01 11:31:36;;;;;;;0.70;0.50;;;;;;;27.88;100.00;-21433.41;5054402;28;20440;-72
2021/08/01 11:34:17;;;;;;;0.70;0.50;;;;;;;28.22;100.00;-21442.31;5048861;28;20437;-73
2021/08/01 11:36:44;;;;;;;0.70;0.50;;;;;;;28.92;100.00;-21460.66;5034115;28;20836;-72